Time;durP1;ratioP1;P1;durP2;ratioP2;P2;SDS_P1;SDS_P2;PMS_P1;PMS_P2;Temp;Humidity;BMP_temperature;BMP_pressure;BME280_temperature;BME280_humidity;BME280_pressure;Samples;Min_cycle;Max_cycle;Signal;HPM_P1;HPM_P2
2023/12/10 00:00:44;;;;;;;58.20;23.20;;;;;;;-147.86;100.00;46206.82;105604;1257;71581;-41
2023/12/10 00:03:12;;;;;;;64.50;25.20;;;;;;;-147.86;100.00;46204.48;105688;1256;63904;-45
2023/12/10 00:05:39;;;;;;;63.50;25.30;;;;;;;-147.86;100.00;46207.61;105579;1257;71418;-48
2023/12/10 00:08:07;;;;;;;58.60;23.80;;;;;;;-147.86;100.00;46205.26;105689;1257;59716;-44
2023/12/10 00:10:35;;;;;;;65.00;25.20;;;;;;;-147.86;100.00;46203.30;105614;1256;59545;-40
2023/12/10 00:13:03;;;;;;;63.40;25.80;;;;;;;-147.86;100.00;46203.70;105626;1258;71842;-44
2023/12/10 00:15:30;;;;;;;66.80;26.10;;;;;;;-147.86;100.00;46205.65;105658;1256;64094;-42
2023/12/10 00:17:58;;;;;;;71.40;26.80;;;;;;;-147.86;100.00;46204.48;105586;1261;72642;-42
2023/12/10 00:20:26;;;;;;;67.10;25.80;;;;;;;-147.86;100.00;46203.30;105612;1260;59709;-41
2023/12/10 00:22:54;;;;;;;65.40;25.10;;;;;;;-147.86;100.00;46202.52;105609;1255;59949;-41
2023/12/10 00:25:21;;;;;;;58.50;23.30;;;;;;;-147.86;100.00;46200.16;105566;1257;71627;-43
2023/12/10 00:27:49;;;;;;;62.90;24.70;;;;;;;-147.86;100.00;46201.73;105626;1260;63992;-43
2023/12/10 00:30:17;;;;;;;54.70;21.70;;;;;;;-147.86;100.00;46201.34;105603;1262;71115;-44
2023/12/10 00:32:45;;;;;;;53.70;22.70;;;;;;;-147.86;100.00;46198.99;105614;1258;60820;-41
2023/12/10 00:35:13;;;;;;;64.00;23.60;;;;;;;-147.86;100.00;46199.38;105590;1262;59529;-42
2023/12/10 00:37:41;;;;;;;62.60;24.10;;;;;;;-147.86;100.00;46197.03;105587;1257;71894;-44
2023/12/10 00:40:09;;;;;;;57.20;23.60;;;;;;;-147.86;100.00;46197.42;105613;1262;64274;-41
2023/12/10 00:42:37;;;;;;;55.90;21.50;;;;;;;-147.86;100.00;46195.46;105623;1257;71662;-42
2023/12/10 00:45:06;;;;;;;54.10;22.10;;;;;;;-147.86;100.00;46194.68;105596;1263;59695;-43
2023/12/10 00:47:34;;;;;;;57.30;22.20;;;;;;;-147.86;100.00;46196.24;105631;1260;59995;-39
2023/12/10 00:50:03;;;;;;;55.10;22.70;;;;;;;-147.86;100.00;46192.33;105614;1254;71766;-39
2023/12/10 00:52:30;;;;;;;48.20;20.50;;;;;;;-147.86;100.00;46191.16;105649;1258;63011;-41
2023/12/10 00:54:58;;;;;;;57.60;23.20;;;;;;;-147.86;100.00;46191.15;105593;1263;71425;-42
2023/12/10 00:57:26;;;;;;;52.90;21.70;;;;;;;-147.86;100.00;46192.33;105613;1258;59753;-45
2023/12/10 00:59:54;;;;;;;43.10;19.70;;;;;;;-147.86;100.00;46192.72;105606;1254;59941;-41
2023/12/10 01:02:22;;;;;;;56.00;21.30;;;;;;;-147.86;100.00;46188.41;105602;1254;70676;-38
2023/12/10 01:04:49;;;;;;;55.40;21.30;;;;;;;-147.86;100.00;46189.20;105620;1260;63938;-42
2023/12/10 01:07:17;;;;;;;55.30;20.80;;;;;;;-147.86;100.00;46187.63;105625;1260;71441;-39
2023/12/10 01:09:45;;;;;;;54.90;20.80;;;;;;;-147.86;100.00;46187.23;105633;1257;59720;-43
2023/12/10 01:12:13;;;;;;;49.60;19.70;;;;;;;-147.86;100.00;46187.23;105611;1262;59535;-39
2023/12/10 01:14:40;;;;;;;45.10;19.80;;;;;;;-147.86;100.00;46184.49;105591;1263;72818;-42
2023/12/10 01:17:08;;;;;;;46.10;19.10;;;;;;;-147.86;100.00;46183.32;105624;1260;63911;-45
2023/12/10 01:19:36;;;;;;;57.60;21.90;;;;;;;-147.86;100.00;46184.10;105646;1260;72388;-42
2023/12/10 01:22:04;;;;;;;50.50;19.40;;;;;;;-147.86;100.00;46183.32;105618;1257;59666;-42
2023/12/10 01:24:31;;;;;;;47.50;19.80;;;;;;;-147.86;100.00;46181.36;105691;1258;59973;-42
2023/12/10 01:27:00;;;;;;;54.60;20.30;;;;;;;-147.86;100.00;46179.79;105687;1255;73006;-39
2023/12/10 01:29:27;;;;;;;46.30;19.50;;;;;;;-147.86;100.00;46184.10;105694;1255;64147;-41
2023/12/10 01:31:55;;;;;;;49.30;21.00;;;;;;;-147.86;100.00;46180.18;105608;1257;72583;-42
2023/12/10 01:34:23;;;;;;;49.60;19.40;;;;;;;-147.86;100.00;46182.14;105633;1257;59724;-39
2023/12/10 01:36:51;;;;;;;45.40;19.40;;;;;;;-147.86;100.00;46177.44;105649;1260;59625;-39
2023/12/10 01:39:19;;;;;;;53.60;20.90;;;;;;;-147.86;100.00;46179.40;105611;1254;71855;-45
2023/12/10 01:41:47;;;;;;;46.40;19.80;;;;;;;-147.86;100.00;46180.57;105655;1260;64371;-40
2023/12/10 01:44:15;;;;;;;50.30;20.60;;;;;;;-147.86;100.00;46177.04;105620;1258;72600;-40
2023/12/10 01:46:45;;;;;;;44.10;18.60;;;;;;;-147.86;100.00;46176.65;105767;1256;59730;-43
2023/12/10 01:49:13;;;;;;;49.10;19.60;;;;;;;-147.86;100.00;46175.87;105743;1259;59502;-39
2023/12/10 01:51:42;;;;;;;48.70;20.20;;;;;;;-147.86;100.00;46175.87;105835;1254;71771;-39
2023/12/10 01:54:19;;;;;;;47.40;17.80;;;;;;;-147.86;100.00;46171.95;105777;1260;63936;-42
2023/12/10 01:56:51;;;;;;;42.30;17.80;;;;;;;-147.86;100.00;46175.48;105811;1260;72604;-42
2023/12/10 01:59:32;;;;;;;;;;;;;;;-147.86;100.00;46175.87;105851;1260;60530;-42
2023/12/10 02:02:00;;;;;;;50.60;18.60;;;;;;;-147.86;100.00;46171.95;105834;1258;60487;-43
2023/12/10 02:04:28;;;;;;;46.80;17.90;;;;;;;-147.86;100.00;46172.34;105738;1254;72665;-44
2023/12/10 02:06:56;;;;;;;43.40;17.30;;;;;;;-147.86;100.00;46171.55;105837;1254;63925;-40
2023/12/10 02:09:24;;;;;;;42.50;18.70;;;;;;;-147.86;100.00;46169.21;105673;1254;71700;-42
2023/12/10 02:11:52;;;;;;;41.80;16.70;;;;;;;-147.86;100.00;46169.59;105695;1260;60524;-41
2023/12/10 02:14:20;;;;;;;43.00;17.30;;;;;;;-147.86;100.00;46167.64;105699;1254;60431;-42
2023/12/10 02:16:47;;;;;;;39.90;17.10;;;;;;;-147.86;100.00;46169.99;105691;1260;72894;-44
2023/12/10 02:19:15;;;;;;;36.30;15.60;;;;;;;-147.86;100.00;46165.29;105710;1254;63030;-42
2023/12/10 02:21:45;;;;;;;35.40;15.60;;;;;;;-147.86;100.00;46166.07;105878;1255;71367;-40
2023/12/10 02:24:14;;;;;;;35.10;15.90;;;;;;;-147.86;100.00;46166.86;105763;1257;60912;-44
2023/12/10 02:26:42;;;;;;;38.70;17.90;;;;;;;-147.86;100.00;46166.46;105717;1254;60445;-43
2023/12/10 02:29:10;;;;;;;31.20;14.70;;;;;;;-147.86;100.00;46165.29;105719;1254;73746;-41
2023/12/10 02:31:38;;;;;;;36.80;16.30;;;;;;;-147.86;100.00;46165.29;105854;1254;64458;-44
2023/12/10 02:34:05;;;;;;;27.40;13.20;;;;;;;-147.86;100.00;46162.94;105718;1260;72632;-42
2023/12/10 02:36:34;;;;;;;30.30;14.20;;;;;;;-147.86;100.00;46163.33;105645;1256;60462;-43
2023/12/10 02:39:02;;;;;;;32.20;14.90;;;;;;;-147.86;100.00;46162.54;105820;1254;60622;-42
2023/12/10 02:41:30;;;;;;;26.50;13.30;;;;;;;-147.86;100.00;46162.15;105706;1254;72683;-39
2023/12/10 02:43:57;;;;;;;28.50;13.10;;;;;;;-147.86;100.00;46160.98;105838;1254;64098;-40
2023/12/10 02:46:25;;;;;;;28.50;12.80;;;;;;;-147.86;100.00;46161.76;105867;1254;71564;-42
2023/12/10 02:48:53;;;;;;;24.40;12.50;;;;;;;-147.86;100.00;46159.41;105808;1259;60533;-40
2023/12/10 02:51:20;;;;;;;27.80;12.90;;;;;;;-147.86;100.00;46158.23;105655;1260;60332;-41
2023/12/10 02:53:48;;;;;;;29.80;14.30;;;;;;;-147.86;100.00;46160.59;105696;1254;72558;-43
2023/12/10 02:56:16;;;;;;;27.20;14.10;;;;;;;-147.86;100.00;46158.23;105681;1254;64021;-42
2023/12/10 02:58:44;;;;;;;27.80;14.00;;;;;;;-147.86;100.00;46159.02;105671;1260;71409;-41
2023/12/10 03:01:12;;;;;;;28.80;13.00;;;;;;;-147.86;100.00;46158.23;105730;1254;61197;-42
2023/12/10 03:03:40;;;;;;;25.50;12.20;;;;;;;-147.86;100.00;46157.06;105726;1257;60338;-38
2023/12/10 03:06:08;;;;;;;27.40;13.40;;;;;;;-147.86;100.00;46155.88;105668;1254;72565;-40
2023/12/10 03:08:35;;;;;;;28.00;13.70;;;;;;;-147.86;100.00;46155.49;105818;1260;65313;-41
2023/12/10 03:11:04;;;;;;;30.70;14.60;;;;;;;-147.86;100.00;46154.71;105671;1258;71359;-41
2023/12/10 03:13:31;;;;;;;28.10;13.50;;;;;;;-147.86;100.00;46156.67;105738;1254;60876;-38
2023/12/10 03:15:59;;;;;;;26.80;12.40;;;;;;;-147.86;100.00;46155.10;105708;1260;60489;-41
2023/12/10 03:18:27;;;;;;;29.70;13.30;;;;;;;-147.86;100.00;46155.88;105708;1260;73847;-42
2023/12/10 03:20:55;;;;;;;26.90;13.70;;;;;;;-147.86;100.00;46153.93;105714;1253;64002;-39
2023/12/10 03:23:23;;;;;;;30.00;14.00;;;;;;;-147.86;100.00;46153.14;105822;1257;71436;-41
2023/12/10 03:25:51;;;;;;;30.50;14.10;;;;;;;-147.86;100.00;46152.75;105707;1259;60533;-41
2023/12/10 03:28:19;;;;;;;31.30;14.30;;;;;;;-147.86;100.00;46153.93;105696;1255;60338;-44
2023/12/10 03:30:47;;;;;;;32.10;15.70;;;;;;;-147.86;100.00;46153.14;105786;1254;73786;-44
2023/12/10 03:33:14;;;;;;;29.10;14.20;;;;;;;-147.86;100.00;46151.18;105711;1254;65150;-45
2023/12/10 03:35:42;;;;;;;34.00;13.50;;;;;;;-147.86;100.00;46153.14;105806;1260;71385;-43
2023/12/10 03:38:10;;;;;;;29.40;13.10;;;;;;;-147.86;100.00;46155.49;105749;1254;60420;-42
2023/12/10 03:40:38;;;;;;;26.70;12.90;;;;;;;-147.86;100.00;46153.53;105742;1259;60408;-44
2023/12/10 03:43:06;;;;;;;22.50;12.30;;;;;;;-147.86;100.00;46153.14;105705;1257;72872;-43
2023/12/10 03:45:33;;;;;;;28.10;13.20;;;;;;;-147.86;100.00;46150.00;105725;1259;64086;-40
2023/12/10 03:48:01;;;;;;;21.80;12.00;;;;;;;-147.86;100.00;46151.57;105729;1259;72585;-41
2023/12/10 03:50:29;;;;;;;25.50;12.60;;;;;;;-147.86;100.00;46152.36;105848;1257;60556;-40
2023/12/10 03:52:57;;;;;;;29.00;13.20;;;;;;;-147.86;100.00;46148.44;105935;1255;60338;-40
2023/12/10 03:55:24;;;;;;;27.40;13.40;;;;;;;-147.86;100.00;46148.83;105715;1259;73786;-44
2023/12/10 03:57:52;;;;;;;22.90;12.50;;;;;;;-147.86;100.00;46151.57;105739;1257;63971;-43
2023/12/10 04:00:20;;;;;;;30.50;13.40;;;;;;;-147.86;100.00;46150.40;105811;1258;72375;-39
2023/12/10 04:02:48;;;;;;;27.70;13.30;;;;;;;-147.86;100.00;46148.83;105839;1259;60484;-41
2023/12/10 04:05:16;;;;;;;24.90;12.50;;;;;;;-147.86;100.00;46147.26;105685;1260;60411;-44
2023/12/10 04:07:47;;;;;;;25.00;12.60;;;;;;;-147.86;100.00;46148.83;105755;1254;72584;-42
2023/12/10 04:10:15;;;;;;;31.70;12.60;;;;;;;-147.86;100.00;46147.65;105734;1259;64773;-38
2023/12/10 04:12:43;;;;;;;27.60;13.20;;;;;;;-147.86;100.00;46146.48;105726;1258;71360;-44
2023/12/10 04:15:10;;;;;;;29.50;13.10;;;;;;;-147.86;100.00;46148.44;105669;1260;60817;-40
2023/12/10 04:17:38;;;;;;;29.40;13.60;;;;;;;-147.86;100.00;46150.40;105749;1254;60469;-40
2023/12/10 04:20:07;;;;;;;29.80;13.30;;;;;;;-147.86;100.00;46142.95;105755;1260;73613;-41
2023/12/10 04:22:35;;;;;;;24.20;12.80;;;;;;;-147.86;100.00;46145.30;105723;1257;64105;-44
2023/12/10 04:25:03;;;;;;;27.00;12.90;;;;;;;-147.86;100.00;46145.70;105709;1257;71416;-43
2023/12/10 04:27:30;;;;;;;28.20;12.50;;;;;;;-147.86;100.00;46143.73;105723;1260;60791;-39
2023/12/10 04:29:58;;;;;;;22.00;11.60;;;;;;;-147.86;100.00;46144.91;105881;1266;60420;-40
2023/12/10 04:32:26;;;;;;;27.80;12.70;;;;;;;-147.86;100.00;46144.52;105710;1255;72626;-42
2023/12/10 04:34:54;;;;;;;27.00;12.70;;;;;;;-147.86;100.00;46144.91;105712;1259;63961;-43
2023/12/10 04:37:22;;;;;;;26.60;13.40;;;;;;;-147.86;100.00;46145.70;105654;1258;71485;-41
2023/12/10 04:39:49;;;;;;;28.20;13.20;;;;;;;-147.86;100.00;46143.35;105689;1260;60469;-41
2023/12/10 04:42:17;;;;;;;25.80;12.90;;;;;;;-147.86;100.00;46144.91;105691;1259;60492;-43
2023/12/10 04:44:45;;;;;;;23.40;11.80;;;;;;;-147.86;100.00;46144.13;105709;1253;73793;-42
2023/12/10 04:47:13;;;;;;;23.20;12.20;;;;;;;-147.86;100.00;46144.52;105666;1253;64509;-42
2023/12/10 04:49:41;;;;;;;25.30;12.50;;;;;;;-147.86;100.00;46144.52;105865;1257;71055;-40
2023/12/10 04:52:09;;;;;;;26.40;12.30;;;;;;;-147.86;100.00;46144.13;105862;1256;60559;-41
2023/12/10 04:54:36;;;;;;;27.10;13.30;;;;;;;-147.86;100.00;46141.39;105693;1259;60447;-42
2023/12/10 04:57:04;;;;;;;22.50;12.10;;;;;;;-147.86;100.00;46141.78;105924;1255;73835;-42
2023/12/10 04:59:32;;;;;;;21.20;11.00;;;;;;;-147.86;100.00;46141.77;105703;1260;65158;-39
2023/12/10 05:02:00;;;;;;;19.10;10.50;;;;;;;-147.86;100.00;46140.60;105870;1257;71431;-42
2023/12/10 05:04:27;;;;;;;19.30;10.70;;;;;;;-147.86;100.00;46140.21;105813;1256;60309;-42
2023/12/10 05:06:55;;;;;;;18.50;10.00;;;;;;;-147.86;100.00;46143.34;105879;1257;60309;-43
2023/12/10 05:09:23;;;;;;;19.00;10.10;;;;;;;-147.86;100.00;46142.17;105846;1253;73592;-43
2023/12/10 05:11:50;;;;;;;17.00;8.90;;;;;;;-147.86;100.00;46142.17;105841;1257;63930;-41
2023/12/10 05:14:18;;;;;;;17.90;10.30;;;;;;;-147.86;100.00;46142.17;105680;1260;72665;-42
2023/12/10 05:16:46;;;;;;;14.90;8.80;;;;;;;-147.86;100.00;46139.43;105661;1264;61874;-42
2023/12/10 05:19:13;;;;;;;15.20;8.60;;;;;;;-147.86;100.00;46140.21;105820;1260;60446;-44
2023/12/10 05:21:41;;;;;;;20.70;10.20;;;;;;;-147.86;100.00;46140.60;105684;1255;71658;-42
2023/12/10 05:24:09;;;;;;;15.00;8.70;;;;;;;-147.86;100.00;46141.38;105870;1257;64021;-42
2023/12/10 05:26:38;;;;;;;18.60;9.20;;;;;;;-147.86;100.00;46140.21;105914;1257;71632;-41
2023/12/10 05:29:06;;;;;;;16.90;8.60;;;;;;;-147.86;100.00;46140.21;105884;1257;60523;-45
2023/12/10 05:31:33;;;;;;;21.70;9.80;;;;;;;-147.86;100.00;46139.82;105746;1254;60418;-40
2023/12/10 05:34:01;;;;;;;14.10;8.20;;;;;;;-147.86;100.00;46139.82;105849;1255;72555;-42
2023/12/10 05:36:29;;;;;;;14.40;8.60;;;;;;;-147.86;100.00;46139.04;105863;1252;63953;-38
2023/12/10 05:38:57;;;;;;;13.40;8.30;;;;;;;-147.86;100.00;46140.60;105865;1255;71385;-40
2023/12/10 05:41:24;;;;;;;16.70;8.80;;;;;;;-147.86;100.00;46139.04;105845;1259;60552;-44
2023/12/10 05:43:52;;;;;;;16.10;9.00;;;;;;;-147.86;100.00;46137.86;105823;1257;60373;-39
2023/12/10 05:46:20;;;;;;;16.40;9.20;;;;;;;-147.86;100.00;46138.26;105830;1257;73910;-43
2023/12/10 05:48:48;;;;;;;14.20;8.60;;;;;;;-147.86;100.00;46139.04;105865;1257;64016;-40
2023/12/10 05:51:16;;;;;;;16.50;8.40;;;;;;;-147.86;100.00;46137.86;105694;1257;71385;-39
2023/12/10 05:53:43;;;;;;;17.10;9.60;;;;;;;-147.86;100.00;46140.21;105882;1259;60553;-41
2023/12/10 05:56:11;;;;;;;16.10;9.00;;;;;;;-147.86;100.00;46137.86;105887;1267;60418;-42
2023/12/10 05:58:39;;;;;;;17.20;9.30;;;;;;;-147.86;100.00;46138.64;105683;1255;71575;-42
2023/12/10 06:01:07;;;;;;;13.80;8.50;;;;;;;-147.86;100.00;46135.90;105703;1258;64020;-43
2023/12/10 06:03:35;;;;;;;18.50;9.10;;;;;;;-147.86;100.00;46137.86;105879;1257;71474;-43
2023/12/10 06:06:03;;;;;;;12.40;7.70;;;;;;;-147.86;100.00;46137.08;105711;1260;60530;-40
2023/12/10 06:08:31;;;;;;;13.40;8.20;;;;;;;-147.86;100.00;46135.12;105944;1257;60511;-44
2023/12/10 06:10:58;;;;;;;15.50;8.50;;;;;;;-147.86;100.00;46135.51;105862;1257;72632;-42
2023/12/10 06:13:27;;;;;;;16.80;8.70;;;;;;;-147.86;100.00;46133.94;105899;1262;63895;-40
2023/12/10 06:15:56;;;;;;;15.80;9.20;;;;;;;-147.86;100.00;46134.33;105825;1254;71395;-41
2023/12/10 06:18:24;;;;;;;14.70;8.90;;;;;;;-147.86;100.00;46135.12;105889;1257;60441;-42
2023/12/10 06:20:52;;;;;;;13.30;8.50;;;;;;;-147.86;100.00;46136.68;105759;1258;60542;-43
2023/12/10 06:23:20;;;;;;;16.90;9.50;;;;;;;-147.86;100.00;46133.16;105776;1252;72617;-40
2023/12/10 06:25:47;;;;;;;17.50;9.40;;;;;;;-147.86;100.00;46136.68;105717;1253;63920;-41
2023/12/10 06:28:15;;;;;;;17.20;9.80;;;;;;;-147.86;100.00;46133.94;105733;1253;72748;-41
2023/12/10 06:30:43;;;;;;;16.40;8.60;;;;;;;-147.86;100.00;46134.33;105757;1260;60460;-42
2023/12/10 06:33:11;;;;;;;16.50;9.10;;;;;;;-147.86;100.00;46132.76;105908;1258;60488;-41
2023/12/10 06:35:39;;;;;;;16.00;8.30;;;;;;;-147.86;100.00;46131.98;105866;1257;72587;-43
2023/12/10 06:38:07;;;;;;;18.80;9.10;;;;;;;-147.86;100.00;46133.55;105686;1255;64064;-43
2023/12/10 06:40:35;;;;;;;16.50;9.50;;;;;;;-147.86;100.00;46133.16;105898;1257;71217;-38
2023/12/10 06:43:03;;;;;;;18.50;9.80;;;;;;;-147.86;100.00;46134.73;105848;1257;60408;-41
2023/12/10 06:45:31;;;;;;;16.30;8.90;;;;;;;-147.86;100.00;46133.55;105763;1257;60425;-40
2023/12/10 06:47:59;;;;;;;17.20;9.90;;;;;;;-147.86;100.00;46133.16;105753;1254;73834;-43
2023/12/10 06:50:28;;;;;;;19.90;9.30;;;;;;;-147.86;100.00;46133.55;105908;1266;65240;-40
2023/12/10 06:52:55;;;;;;;17.30;9.50;;;;;;;-147.86;100.00;46131.59;105817;1254;72663;-43
2023/12/10 06:55:24;;;;;;;22.50;9.50;;;;;;;-147.86;100.00;46129.63;105874;1254;60555;-42
2023/12/10 06:57:53;;;;;;;17.70;10.60;;;;;;;-147.86;100.00;46131.59;105720;1255;60338;-39
2023/12/10 07:00:21;;;;;;;18.50;10.00;;;;;;;-147.86;100.00;46133.15;105774;1257;72642;-42
2023/12/10 07:02:49;;;;;;;16.90;9.20;;;;;;;-147.86;100.00;46131.59;105789;1258;64022;-42
2023/12/10 07:05:16;;;;;;;17.20;9.40;;;;;;;-147.86;100.00;46129.24;105718;1254;71418;-40
2023/12/10 07:07:44;;;;;;;18.70;10.10;;;;;;;-147.86;100.00;46129.63;105662;1254;60520;-41
2023/12/10 07:12:02;;;;;;;19.40;10.20;;;;;;;-147.86;100.00;46159.80;102549;1290;602765;-41
2023/12/10 07:14:29;;;;;;;19.20;10.90;;;;;;;-147.86;100.00;46162.15;105118;1268;61469;-43
2023/12/10 07:16:55;;;;;;;20.30;10.80;;;;;;;-147.86;100.00;46155.10;105171;1268;60411;-39
2023/12/10 07:19:23;;;;;;;21.40;11.70;;;;;;;-147.86;100.00;46150.39;105180;1268;72234;-43
2023/12/10 07:21:52;;;;;;;28.10;13.50;;;;;;;-147.86;100.00;46146.87;105025;1269;65567;-45
2023/12/10 07:24:21;;;;;;;21.50;11.30;;;;;;;-147.86;100.00;46144.13;104659;1262;227175;-44
2023/12/10 07:26:49;;;;;;;17.80;10.10;;;;;;;-147.86;100.00;46142.95;104805;1265;61134;-42
2023/12/10 07:29:16;;;;;;;19.60;9.60;;;;;;;-147.86;100.00;46139.43;105032;1264;60150;-44
2023/12/10 07:31:43;;;;;;;17.60;10.00;;;;;;;-147.86;100.00;46142.56;105386;1259;71992;-44
2023/12/10 07:34:10;;;;;;;18.60;11.00;;;;;;;-147.86;100.00;46140.61;105465;1262;65529;-45
2023/12/10 07:36:37;;;;;;;17.00;9.90;;;;;;;-147.86;100.00;46144.13;105427;1260;72622;-45
2023/12/10 07:39:09;;;;;;;30.00;14.10;;;;;;;-147.86;100.00;46142.56;105426;1263;61129;-42
2023/12/10 07:41:36;;;;;;;21.80;11.60;;;;;;;-147.86;100.00;46140.99;105448;1259;60762;-41
2023/12/10 07:44:04;;;;;;;60.60;31.60;;;;;;;-147.86;100.00;46140.21;105464;1260;73040;-43
2023/12/10 07:46:31;;;;;;;102.90;48.40;;;;;;;-147.86;100.00;46143.34;105379;1263;65454;-42
2023/12/10 07:48:58;;;;;;;68.30;33.20;;;;;;;-147.86;100.00;46142.17;105338;1263;72720;-46
2023/12/10 07:51:25;;;;;;;30.10;17.50;;;;;;;-147.86;100.00;46141.38;105360;1263;61346;-44
2023/12/10 07:53:52;;;;;;;29.00;15.80;;;;;;;-147.86;100.00;46144.91;105340;1260;60109;-42
2023/12/10 07:56:19;;;;;;;25.40;13.90;;;;;;;-147.86;100.00;46139.82;105406;1259;72864;-44
2023/12/10 07:58:46;;;;;;;20.90;12.20;;;;;;;-147.86;100.00;46144.13;105388;1264;65286;-42
2023/12/10 08:01:13;;;;;;;22.20;12.60;;;;;;;-147.86;100.00;46141.77;105405;1260;72590;-43
2023/12/10 08:03:40;;;;;;;27.10;13.90;;;;;;;-147.86;100.00;46142.56;105399;1264;61173;-42
2023/12/10 08:06:08;;;;;;;28.30;14.40;;;;;;;-147.86;100.00;46143.35;105401;1259;60274;-44
2023/12/10 08:08:35;;;;;;;27.00;14.90;;;;;;;-147.86;100.00;46144.52;105311;1259;73049;-43
2023/12/10 08:11:05;;;;;;;22.90;12.50;;;;;;;-147.86;100.00;46144.13;105391;1263;64498;-38
2023/12/10 08:13:32;;;;;;;21.90;12.20;;;;;;;-147.86;100.00;46142.96;105368;1261;74408;-39
2023/12/10 08:15:59;;;;;;;21.20;11.50;;;;;;;-147.86;100.00;46145.30;105479;1264;60830;-41
2023/12/10 08:18:27;;;;;;;25.50;11.30;;;;;;;-147.86;100.00;46145.30;105665;1256;59622;-41
2023/12/10 08:20:55;;;;;;;23.70;12.80;;;;;;;-147.86;100.00;46145.30;105684;1257;73223;-43
2023/12/10 08:23:22;;;;;;;24.60;11.50;;;;;;;-147.86;100.00;46144.91;105593;1259;65505;-44
2023/12/10 08:25:49;;;;;;;22.90;12.10;;;;;;;-147.86;100.00;46146.87;105639;1256;72667;-43
2023/12/10 08:28:15;;;;;;;19.70;10.70;;;;;;;-147.86;100.00;46147.26;105614;1259;61714;-40
2023/12/10 08:30:43;;;;;;;19.90;11.50;;;;;;;-147.86;100.00;46147.66;105587;1257;59644;-43
2023/12/10 08:33:10;;;;;;;24.80;12.50;;;;;;;-147.86;100.00;46148.05;105611;1259;73109;-43
2023/12/10 08:35:37;;;;;;;26.00;13.70;;;;;;;-147.86;100.00;46146.09;105631;1256;65568;-42
2023/12/10 08:38:04;;;;;;;21.70;11.70;;;;;;;-147.86;100.00;46148.04;105622;1257;72605;-43
2023/12/10 08:40:31;;;;;;;29.20;12.10;;;;;;;-147.86;100.00;46153.14;105652;1260;61136;-44
2023/12/10 08:42:58;;;;;;;22.90;12.30;;;;;;;-147.86;100.00;46148.44;105691;1256;60191;-44
2023/12/10 08:45:25;;;;;;;23.90;12.10;;;;;;;-147.86;100.00;46151.18;105666;1258;73069;-44
2023/12/10 08:47:52;;;;;;;26.60;12.20;;;;;;;-147.86;100.00;46153.14;105674;1259;65322;-42
2023/12/10 08:50:19;;;;;;;27.30;12.40;;;;;;;-147.86;100.00;46151.96;106047;1253;72613;-40
2023/12/10 08:52:46;;;;;;;36.50;13.20;;;;;;;-147.86;100.00;46153.92;105907;1251;59712;-41
2023/12/10 08:55:13;;;;;;;28.60;11.10;;;;;;;-147.86;100.00;46155.10;105936;1253;60140;-42
2023/12/10 08:57:40;;;;;;;23.00;11.10;;;;;;;-147.86;100.00;46158.23;105876;1253;72972;-43
2023/12/10 09:00:07;;;;;;;23.80;10.30;;;;;;;-147.86;100.00;46160.98;105940;1255;65398;-42
2023/12/10 09:02:35;;;;;;;21.90;10.50;;;;;;;-147.86;100.00;46162.16;105915;1254;72878;-41
2023/12/10 09:05:02;;;;;;;26.10;11.90;;;;;;;-147.86;100.00;46162.16;106157;1252;59699;-43
2023/12/10 09:07:29;;;;;;;23.80;11.30;;;;;;;-147.86;100.00;46164.11;106077;1253;60300;-45
2023/12/10 09:09:59;;;;;;;27.90;14.20;;;;;;;-147.86;100.00;46164.11;106051;1255;72889;-43
2023/12/10 09:12:38;;;;;;;23.70;12.10;;;;;;;-147.86;100.00;46165.29;105978;1256;65446;-46
2023/12/10 09:15:06;;;;;;;27.00;12.60;;;;;;;-147.86;100.00;46168.43;105942;1253;72666;-44
2023/12/10 09:17:33;;;;;;;23.80;11.80;;;;;;;-147.86;100.00;46167.25;105969;1252;59740;-41
2023/12/10 09:20:00;;;;;;;23.90;12.20;;;;;;;-147.86;100.00;46167.25;106038;1251;60006;-46
2023/12/10 09:22:27;;;;;;;23.50;13.00;;;;;;;-147.86;100.00;46167.64;105972;1252;72926;-41
2023/12/10 09:24:55;;;;;;;29.60;14.90;;;;;;;-147.86;100.00;46169.99;105945;1254;64029;-44
2023/12/10 09:27:22;;;;;;;24.30;12.50;;;;;;;-147.86;100.00;46171.55;105940;1253;72659;-44
2023/12/10 09:29:49;;;;;;;30.40;13.10;;;;;;;-147.86;100.00;46170.39;105936;1253;59551;-45
2023/12/10 09:32:20;;;;;;;27.20;13.90;;;;;;;-147.86;100.00;46173.91;105964;1253;60348;-47
2023/12/10 09:34:47;;;;;;;26.30;13.80;;;;;;;-147.86;100.00;46175.09;105921;1253;73007;-40
2023/12/10 09:37:14;;;;;;;24.90;13.00;;;;;;;-147.86;100.00;46177.05;105909;1256;64364;-45
2023/12/10 09:39:41;;;;;;;28.80;14.50;;;;;;;-147.86;100.00;46176.65;105923;1252;72673;-42
2023/12/10 09:42:08;;;;;;;27.50;13.50;;;;;;;-147.86;100.00;46176.26;105911;1255;61775;-42
2023/12/10 09:44:35;;;;;;;32.70;16.00;;;;;;;-147.86;100.00;46177.83;105888;1252;60289;-46
2023/12/10 09:47:02;;;;;;;32.30;16.30;;;;;;;-147.86;100.00;46177.83;105986;1254;73010;-44
2023/12/10 09:49:31;;;;;;;33.90;15.60;;;;;;;-147.86;100.00;46179.39;105709;1258;65473;-42
2023/12/10 09:51:58;;;;;;;31.30;15.90;;;;;;;-147.86;100.00;46178.62;105734;1253;72546;-46
2023/12/10 09:54:25;;;;;;;30.80;14.00;;;;;;;-147.86;100.00;46178.22;105701;1257;61184;-46
2023/12/10 09:56:55;;;;;;;26.50;13.60;;;;;;;-147.86;100.00;46184.49;105999;1253;60335;-41
2023/12/10 09:59:22;;;;;;;27.70;14.30;;;;;;;-147.86;100.00;46182.14;105928;1256;72999;-47
2023/12/10 10:01:53;;;;;;;23.60;12.40;;;;;;;-147.86;100.00;46182.54;106014;1256;65336;-45
2023/12/10 10:04:20;;;;;;;25.40;11.90;;;;;;;-147.86;100.00;46186.06;105881;1253;72779;-42
2023/12/10 10:06:47;;;;;;;27.10;12.90;;;;;;;-147.86;100.00;46185.27;105917;1256;61172;-46
2023/12/10 10:09:14;;;;;;;26.30;12.60;;;;;;;-147.86;100.00;46185.27;105992;1256;60330;-43
2023/12/10 10:11:58;;;;;;;23.60;12.20;;;;;;;-147.86;100.00;46189.59;105897;1256;72979;-44
2023/12/10 10:14:25;;;;;;;35.60;13.30;;;;;;;-147.86;100.00;46187.23;105707;1258;65230;-42
2023/12/10 10:16:53;;;;;;;29.10;13.30;;;;;;;-147.86;100.00;46189.59;105968;1254;72629;-43
2023/12/10 10:19:20;;;;;;;24.40;12.70;;;;;;;-147.86;100.00;46189.98;105912;1253;61381;-44
2023/12/10 10:21:48;;;;;;;26.10;12.50;;;;;;;-147.86;100.00;46192.32;105962;1256;60275;-46
2023/12/10 10:24:15;;;;;;;28.70;12.80;;;;;;;-147.86;100.00;46193.11;105900;1254;73014;-41
2023/12/10 10:26:45;;;;;;;21.80;11.90;;;;;;;-147.86;100.00;46191.54;105920;1252;65404;-45
2023/12/10 10:29:12;;;;;;;29.30;14.20;;;;;;;-147.86;100.00;46192.71;105922;1256;72619;-45
2023/12/10 10:31:39;;;;;;;26.30;13.70;;;;;;;-147.86;100.00;46198.21;105820;1257;59548;-44
2023/12/10 10:34:06;;;;;;;23.40;12.30;;;;;;;-147.86;100.00;46196.64;106016;1253;60250;-43
2023/12/10 10:36:34;;;;;;;27.80;14.00;;;;;;;-147.86;100.00;46198.21;105950;1253;73080;-45
2023/12/10 10:39:01;;;;;;;24.00;12.30;;;;;;;-147.86;100.00;46198.99;105995;1256;65597;-41
2023/12/10 10:41:28;;;;;;;25.60;12.60;;;;;;;-147.86;100.00;46198.20;105892;1252;71609;-47
2023/12/10 10:43:58;;;;;;;21.70;11.60;;;;;;;-147.86;100.00;46200.56;105986;1255;60069;-44
2023/12/10 10:46:25;;;;;;;24.60;13.20;;;;;;;-147.86;100.00;46197.81;105924;1254;60343;-42
2023/12/10 10:48:53;;;;;;;26.50;13.70;;;;;;;-147.86;100.00;46200.95;105947;1253;73058;-42
2023/12/10 10:51:22;;;;;;;26.90;13.40;;;;;;;-147.86;100.00;46200.56;105696;1257;65675;-43